Terminal Aerodrome Forecast
Issued by NWS Quad Cities IA IL

Home | Current Version | Previous Version | Text Only | Print | Product List | Glossary On
Versions: 1 2 3 4 5 6 7 8 9 10 11 12 13 14 15 16 17 18 19 20 21 22 23 24 25 26 27 28 29
549
FTUS43 KDVN 311905 AAA
TAFDBQ
TAF AMD
KDBQ 311905Z 3119/0118 12012G20KT P6SM BKN080
      TEMPO 3120/3124 5SM -TSRA BKN035CB
     FM010000 17005KT P6SM VCSH BKN040
     FM010400 25007KT P6SM SCT200=

USA.gov is the U.S. government's official web portal to all federal, state and local government web resources and services.